Time;durP1;ratioP1;P1;durP2;ratioP2;P2;SDS_P1;SDS_P2;PMS_P1;PMS_P2;Temp;Humidity;BMP_temperature;BMP_pressure;BME280_temperature;BME280_humidity;BME280_pressure;Samples;Min_cycle;Max_cycle;Signal;HPM_P1;HPM_P2
2022/03/25 00:00:12;;;;;;;;;;;23.60;46.40;;;;;;4978662;28;1169;-38
2022/03/25 00:02:39;;;;;;;;;;;23.60;46.40;;;;;;4978483;28;997;-39
2022/03/25 00:05:07;;;;;;;;;;;23.60;46.60;;;;;;4978818;28;1001;-33
2022/03/25 00:07:34;;;;;;;;;;;23.70;47.30;;;;;;4978837;28;1132;-38
2022/03/25 00:10:02;;;;;;;;;;;23.70;46.20;;;;;;4978839;28;1018;-37
2022/03/25 00:12:30;;;;;;;;;;;23.70;46.20;;;;;;4978573;28;1895;-37
2022/03/25 00:14:57;;;;;;;;;;;23.70;46.20;;;;;;4978356;28;1031;-37
2022/03/25 00:17:24;;;;;;;;;;;23.80;46.30;;;;;;4977541;28;1116;-37
2022/03/25 00:19:51;;;;;;;;;;;23.80;46.20;;;;;;4977804;28;1303;-37
2022/03/25 00:22:17;;;;;;;;;;;23.80;46.20;;;;;;4977267;28;973;-45
2022/03/25 00:24:44;;;;;;;;;;;24.00;46.30;;;;;;4976561;28;997;-44
2022/03/25 00:27:11;;;;;;;;;;;23.90;45.80;;;;;;4977145;28;966;-46
2022/03/25 00:29:39;;;;;;;;;;;23.90;45.90;;;;;;4976512;28;1003;-46
2022/03/25 00:32:06;;;;;;;;;;;23.90;45.90;;;;;;4977099;28;1902;-45
2022/03/25 00:34:33;;;;;;;;;;;23.90;45.90;;;;;;4976346;28;1034;-46
2022/03/25 00:37:00;;;;;;;;;;;23.90;46.00;;;;;;4975831;28;1010;-46
2022/03/25 00:39:27;;;;;;;;;;;23.90;45.80;;;;;;4976322;28;918;-45
2022/03/25 00:41:54;;;;;;;;;;;24.00;46.00;;;;;;4975932;28;997;-40
2022/03/25 00:44:20;;;;;;;;;;;24.00;46.00;;;;;;4976224;28;934;-41
2022/03/25 00:46:48;;;;;;;;;;;23.90;45.80;;;;;;4975851;28;899;-41
2022/03/25 00:49:17;;;;;;;;;;;24.00;45.80;;;;;;4976095;28;1049;-46
2022/03/25 00:51:44;;;;;;;;;;;24.00;47.00;;;;;;4976036;28;1907;-45
2022/03/25 00:54:10;;;;;;;;;;;24.00;45.80;;;;;;4976019;28;1014;-45
2022/03/25 00:56:37;;;;;;;;;;;23.90;45.70;;;;;;4976404;28;962;-45
2022/03/25 00:59:04;;;;;;;;;;;24.00;45.90;;;;;;4976384;28;1088;-44
2022/03/25 01:01:30;;;;;;;;;;;24.00;46.00;;;;;;4976820;28;1011;-46
2022/03/25 01:03:59;;;;;;;;;;;23.90;45.90;;;;;;4979576;28;1038;-46
2022/03/25 01:06:26;;;;;;;;;;;23.90;45.90;;;;;;4980539;28;947;-45
2022/03/25 01:08:52;;;;;;;;;;;23.90;45.90;;;;;;4979718;28;981;-45
2022/03/25 01:11:19;;;;;;;;;;;23.90;46.00;;;;;;4980060;28;1405;-45
2022/03/25 01:13:46;;;;;;;;;;;23.90;46.10;;;;;;4980040;28;1910;-46
2022/03/25 01:16:13;;;;;;;;;;;23.90;45.90;;;;;;4979939;28;1137;-44
2022/03/25 01:18:40;;;;;;;;;;;23.90;46.00;;;;;;4980023;28;894;-43
2022/03/25 01:21:08;;;;;;;;;;;23.90;46.10;;;;;;4980431;28;1017;-45
2022/03/25 01:23:35;;;;;;;;;;;23.90;46.20;;;;;;4979853;28;878;-45
2022/03/25 01:26:02;;;;;;;;;;;23.90;46.10;;;;;;4979039;28;984;-45
2022/03/25 01:28:34;;;;;;;;;;;23.90;46.10;;;;;;4980216;28;1042;-46
2022/03/25 01:31:01;;;;;;;;;;;23.90;46.10;;;;;;4980026;28;946;-46
2022/03/25 01:33:28;;;;;;;;;;;23.80;46.20;;;;;;4979643;28;1903;-46
2022/03/25 01:35:55;;;;;;;;;;;23.80;46.20;;;;;;4979785;28;986;-45
2022/03/25 01:38:25;;;;;;;;;;;23.80;46.20;;;;;;4979205;28;1008;-45
2022/03/25 01:40:52;;;;;;;;;;;23.80;46.10;;;;;;4979106;28;977;-45
2022/03/25 01:43:19;;;;;;;;;;;23.80;46.30;;;;;;4979598;28;958;-46
2022/03/25 01:45:46;;;;;;;;;;;23.80;46.30;;;;;;4979243;28;1015;-45
2022/03/25 01:48:14;;;;;;;;;;;23.80;46.40;;;;;;4978893;28;1050;-46
2022/03/25 01:50:42;;;;;;;;;;;23.80;46.40;;;;;;4979700;28;1009;-45
2022/03/25 01:53:12;;;;;;;;;;;23.80;46.40;;;;;;4979186;28;1978;-45
2022/03/25 01:55:44;;;;;;;;;;;23.70;46.40;;;;;;4978069;28;986;-46
2022/03/25 01:58:12;;;;;;;;;;;23.70;46.40;;;;;;4978291;28;1150;-43
2022/03/25 02:00:40;;;;;;;;;;;23.70;46.50;;;;;;4978970;28;1375;-46
2022/03/25 02:03:06;;;;;;;;;;;23.70;46.60;;;;;;4978534;28;978;-44
2022/03/25 02:05:35;;;;;;;;;;;23.70;46.60;;;;;;4978590;28;1852;-45
2022/03/25 02:08:02;;;;;;;;;;;23.70;46.60;;;;;;4978171;28;890;-46
2022/03/25 02:10:28;;;;;;;;;;;23.70;46.50;;;;;;4978788;28;958;-42
2022/03/25 02:12:56;;;;;;;;;;;23.70;46.60;;;;;;4978497;28;1985;-45
2022/03/25 02:15:33;;;;;;;;;;;23.60;46.60;;;;;;4977493;28;938;-45
2022/03/25 02:18:01;;;;;;;;;;;23.60;46.70;;;;;;4978849;28;1400;-45
2022/03/25 02:20:28;;;;;;;;;;;23.60;46.80;;;;;;4979103;28;1033;-45
2022/03/25 02:22:56;;;;;;;;;;;23.60;46.70;;;;;;4979100;28;1002;-46
2022/03/25 02:25:26;;;;;;;;;;;23.60;46.80;;;;;;4978987;28;975;-42
2022/03/25 02:27:53;;;;;;;;;;;23.60;46.80;;;;;;4978560;28;855;-45
2022/03/25 02:30:20;;;;;;;;;;;23.50;46.80;;;;;;4979078;28;1811;-49
2022/03/25 02:32:47;;;;;;;;;;;23.50;46.80;;;;;;4979249;28;1902;-44
2022/03/25 02:35:13;;;;;;;;;;;23.50;46.90;;;;;;4979242;28;986;-44
2022/03/25 02:37:40;;;;;;;;;;;23.60;48.00;;;;;;4979025;28;944;-45
2022/03/25 02:40:09;;;;;;;;;;;23.50;46.80;;;;;;4978792;28;1021;-46
2022/03/25 02:42:36;;;;;;;;;;;23.50;46.90;;;;;;4978880;28;1037;-46
2022/03/25 02:45:04;;;;;;;;;;;23.50;46.90;;;;;;4978922;28;1014;-44
2022/03/25 02:47:31;;;;;;;;;;;23.50;46.90;;;;;;4978782;28;946;-44
2022/03/25 02:49:57;;;;;;;;;;;23.50;47.00;;;;;;4977896;28;997;-44
2022/03/25 02:52:24;;;;;;;;;;;23.50;47.00;;;;;;4978939;28;1975;-45
2022/03/25 02:54:51;;;;;;;;;;;23.50;47.00;;;;;;4978610;28;955;-44
2022/03/25 02:57:19;;;;;;;;;;;23.40;47.00;;;;;;4978174;28;982;-43
2022/03/25 02:59:46;;;;;;;;;;;23.40;47.00;;;;;;4978378;28;1216;-45
2022/03/25 03:02:13;;;;;;;;;;;23.50;47.10;;;;;;4977928;28;1009;-45
2022/03/25 03:04:40;;;;;;;;;;;23.40;47.00;;;;;;4978036;28;938;-43
2022/03/25 03:07:07;;;;;;;;;;;23.40;47.10;;;;;;4979127;28;946;-44
2022/03/25 03:09:33;;;;;;;;;;;23.40;47.10;;;;;;4977785;28;977;-46
2022/03/25 03:12:00;;;;;;;;;;;23.40;47.10;;;;;;4978646;28;1902;-46
2022/03/25 03:14:28;;;;;;;;;;;23.40;47.10;;;;;;4978147;28;1002;-46
2022/03/25 03:16:55;;;;;;;;;;;23.40;47.10;;;;;;4978425;28;951;-44
2022/03/25 03:19:23;;;;;;;;;;;23.40;47.00;;;;;;4978062;28;1013;-45
2022/03/25 03:21:49;;;;;;;;;;;23.40;47.10;;;;;;4978083;28;910;-46
2022/03/25 03:24:16;;;;;;;;;;;23.40;47.10;;;;;;4977497;28;874;-45
2022/03/25 03:26:43;;;;;;;;;;;23.40;47.10;;;;;;4977526;28;906;-45
2022/03/25 03:29:09;;;;;;;;;;;23.40;47.10;;;;;;4978026;28;1005;-44
2022/03/25 03:31:37;;;;;;;;;;;23.40;47.20;;;;;;4977487;28;1025;-46
2022/03/25 03:34:04;;;;;;;;;;;23.40;47.20;;;;;;4976137;28;1910;-45
2022/03/25 03:36:31;;;;;;;;;;;23.40;47.20;;;;;;4977050;28;954;-44
2022/03/25 03:38:58;;;;;;;;;;;23.40;47.20;;;;;;4977166;28;939;-43
2022/03/25 03:41:25;;;;;;;;;;;23.40;47.10;;;;;;4976540;28;1165;-45
2022/03/25 03:43:52;;;;;;;;;;;23.40;47.00;;;;;;4977681;28;974;-45
2022/03/25 03:46:18;;;;;;;;;;;23.40;46.90;;;;;;4976477;28;994;-45
2022/03/25 03:48:46;;;;;;;;;;;23.40;46.90;;;;;;4976956;28;966;-43
2022/03/25 03:51:13;;;;;;;;;;;23.40;46.90;;;;;;4977097;28;1182;-42
2022/03/25 03:53:40;;;;;;;;;;;23.40;47.00;;;;;;4977090;28;1989;-43
2022/03/25 03:56:07;;;;;;;;;;;23.40;47.00;;;;;;4977833;28;898;-46
2022/03/25 04:01:46;;;;;;;;;;;23.40;47.10;;;;;;4976657;28;934;-43
2022/03/25 04:04:14;;;;;;;;;;;23.40;47.10;;;;;;4977133;28;1014;-45
2022/03/25 04:06:41;;;;;;;;;;;23.30;47.10;;;;;;4976754;28;974;-44
2022/03/25 04:09:08;;;;;;;;;;;23.30;47.10;;;;;;4977675;28;998;-45
2022/03/25 04:11:34;;;;;;;;;;;23.30;47.10;;;;;;4977084;28;974;-43
2022/03/25 04:14:01;;;;;;;;;;;23.40;47.20;;;;;;4976931;28;1902;-45
2022/03/25 04:16:29;;;;;;;;;;;23.30;47.10;;;;;;4976972;28;918;-45
2022/03/25 04:18:56;;;;;;;;;;;23.30;47.10;;;;;;4976880;28;1018;-46
2022/03/25 04:21:24;;;;;;;;;;;23.30;47.10;;;;;;4977437;28;990;-43
2022/03/25 04:23:51;;;;;;;;;;;23.30;47.10;;;;;;4977981;28;938;-42
2022/03/25 04:26:18;;;;;;;;;;;23.30;47.10;;;;;;4977221;28;1038;-44
2022/03/25 04:28:45;;;;;;;;;;;23.30;47.10;;;;;;4976702;28;954;-45
2022/03/25 04:31:11;;;;;;;;;;;23.30;47.10;;;;;;4977193;28;1002;-43
2022/03/25 04:33:38;;;;;;;;;;;23.30;47.10;;;;;;4976946;28;1902;-43
2022/03/25 04:36:05;;;;;;;;;;;23.30;47.20;;;;;;4975002;28;1123;-45
2022/03/25 04:38:33;;;;;;;;;;;23.30;47.10;;;;;;4979519;28;867;-42
2022/03/25 04:41:00;;;;;;;;;;;23.30;47.20;;;;;;4979799;28;987;-42
2022/03/25 04:43:26;;;;;;;;;;;23.30;47.10;;;;;;4979912;28;954;-45
2022/03/25 04:45:53;;;;;;;;;;;23.20;47.10;;;;;;4979431;28;954;-43
2022/03/25 04:48:20;;;;;;;;;;;23.20;47.20;;;;;;4977628;28;950;-45
2022/03/25 04:50:47;;;;;;;;;;;23.30;47.20;;;;;;4978083;28;942;-42
2022/03/25 04:53:13;;;;;;;;;;;23.30;47.20;;;;;;4979671;28;1899;-44
2022/03/25 04:55:41;;;;;;;;;;;23.20;47.20;;;;;;4980165;28;931;-45
2022/03/25 04:58:08;;;;;;;;;;;23.20;47.20;;;;;;4979960;28;1030;-44
2022/03/25 05:00:37;;;;;;;;;;;23.20;47.10;;;;;;4980576;28;836;-45
2022/03/25 05:03:04;;;;;;;;;;;23.20;47.10;;;;;;4980895;28;947;-43
2022/03/25 05:05:31;;;;;;;;;;;23.20;47.20;;;;;;4980638;28;1021;-45
2022/03/25 05:07:58;;;;;;;;;;;23.20;47.20;;;;;;4982862;28;970;-45
2022/03/25 05:10:25;;;;;;;;;;;23.20;47.20;;;;;;4980403;28;942;-42
2022/03/25 05:12:53;;;;;;;;;;;23.20;47.10;;;;;;4981359;28;1894;-45
2022/03/25 05:15:20;;;;;;;;;;;23.20;47.20;;;;;;4980953;28;962;-45
2022/03/25 05:17:47;;;;;;;;;;;23.20;47.10;;;;;;4980684;28;1046;-45
2022/03/25 05:20:15;;;;;;;;;;;23.20;47.10;;;;;;4980625;28;1014;-45
2022/03/25 05:22:42;;;;;;;;;;;23.20;47.20;;;;;;4980544;28;1021;-45
2022/03/25 05:25:09;;;;;;;;;;;23.10;47.10;;;;;;4980321;28;893;-45
2022/03/25 05:27:46;;;;;;;;;;;23.10;47.20;;;;;;4979257;28;1014;-43
2022/03/25 05:30:14;;;;;;;;;;;23.10;47.20;;;;;;4979537;28;1481;-42
2022/03/25 05:32:42;;;;;;;;;;;23.10;47.10;;;;;;4978636;28;918;-45
2022/03/25 05:35:09;;;;;;;;;;;23.10;47.10;;;;;;4977779;28;1979;-44
2022/03/25 05:37:36;;;;;;;;;;;23.10;47.10;;;;;;4978519;28;1038;-45
2022/03/25 05:40:03;;;;;;;;;;;23.10;47.10;;;;;;4978724;28;1025;-42
2022/03/25 05:42:30;;;;;;;;;;;23.10;47.10;;;;;;4978498;28;984;-41
2022/03/25 05:44:56;;;;;;;;;;;23.10;47.20;;;;;;4977556;28;946;-41
2022/03/25 05:47:25;;;;;;;;;;;23.10;47.10;;;;;;4978239;28;1026;-41
2022/03/25 05:49:52;;;;;;;;;;;23.10;47.10;;;;;;4976903;28;947;-40
2022/03/25 05:52:18;;;;;;;;;;;23.10;47.10;;;;;;4977308;28;1021;-41
2022/03/25 05:54:45;;;;;;;;;;;23.10;47.20;;;;;;4977415;28;1981;-41
2022/03/25 05:57:12;;;;;;;;;;;23.10;47.20;;;;;;4977491;28;962;-45
2022/03/25 05:59:38;;;;;;;;;;;23.10;47.20;;;;;;4977630;28;1102;-40
2022/03/25 06:02:05;;;;;;;;;;;23.10;47.10;;;;;;4976972;28;1002;-40
2022/03/25 06:04:34;;;;;;;;;;;23.10;47.20;;;;;;4977013;28;1028;-41
2022/03/25 06:07:01;;;;;;;;;;;23.10;47.10;;;;;;4976903;28;1046;-43
2022/03/25 06:09:28;;;;;;;;;;;23.10;47.30;;;;;;4976196;28;966;-43
2022/03/25 06:11:56;;;;;;;;;;;23.10;47.10;;;;;;4976431;28;990;-40
2022/03/25 06:14:24;;;;;;;;;;;23.00;47.20;;;;;;4976061;28;1914;-41
2022/03/25 06:16:51;;;;;;;;;;;23.00;47.10;;;;;;4976521;28;877;-41
2022/03/25 06:19:18;;;;;;;;;;;23.10;47.20;;;;;;4975871;28;947;-40
2022/03/25 06:21:46;;;;;;;;;;;23.00;47.20;;;;;;4975212;28;1446;-40
2022/03/25 06:24:12;;;;;;;;;;;23.20;47.10;;;;;;4975109;28;898;-41
2022/03/25 06:26:39;;;;;;;;;;;23.10;47.00;;;;;;4973038;28;1410;-42
2022/03/25 06:29:08;;;;;;;;;;;23.00;47.20;;;;;;4968868;28;899;-39
2022/03/25 06:31:34;;;;;;;;;;;23.00;47.20;;;;;;4970153;28;998;-40
2022/03/25 06:34:03;;;;;;;;;;;23.00;47.20;;;;;;4974268;28;2001;-40
2022/03/25 06:36:29;;;;;;;;;;;23.00;47.20;;;;;;4969475;28;989;-40
2022/03/25 06:38:57;;;;;;;;;;;23.00;47.20;;;;;;4945446;28;882;-40
2022/03/25 06:41:24;;;;;;;;;;;23.00;47.30;;;;;;4953066;28;1004;-42
2022/03/25 06:43:51;;;;;;;;;;;23.10;47.20;;;;;;4972053;28;928;-46
2022/03/25 06:46:18;;;;;;;;;;;23.10;47.10;;;;;;4975854;28;1008;-46
2022/03/25 06:48:45;;;;;;;;;;;23.10;47.30;;;;;;4975370;28;981;-45
2022/03/25 06:51:12;;;;;;;;;;;23.10;47.40;;;;;;4974510;28;974;-46
2022/03/25 06:53:39;;;;;;;;;;;23.10;47.50;;;;;;4975196;28;1906;-46
2022/03/25 06:56:08;;;;;;;;;;;23.10;47.60;;;;;;4975851;28;1023;-38
2022/03/25 06:58:37;;;;;;;;;;;23.10;47.70;;;;;;4974961;28;1205;-45
2022/03/25 07:01:05;;;;;;;;;;;23.30;47.20;;;;;;4974933;28;1056;-43
2022/03/25 07:03:33;;;;;;;;;;;23.40;47.10;;;;;;4975491;28;942;-43
2022/03/25 07:06:00;;;;;;;;;;;23.40;47.10;;;;;;4976119;28;1049;-44
2022/03/25 07:08:28;;;;;;;;;;;23.30;47.10;;;;;;4975477;28;935;-45
2022/03/25 07:10:55;;;;;;;;;;;23.50;47.10;;;;;;4974782;28;1022;-42
2022/03/25 07:13:23;;;;;;;;;;;23.40;47.80;;;;;;4974733;28;1987;-44
2022/03/25 07:15:50;;;;;;;;;;;23.40;47.20;;;;;;4975712;28;1009;-43
2022/03/25 07:18:17;;;;;;;;;;;23.40;47.40;;;;;;4975025;28;830;-41
2022/03/25 07:20:44;;;;;;;;;;;23.30;47.50;;;;;;4975754;28;950;-42
2022/03/25 07:23:11;;;;;;;;;;;23.30;47.70;;;;;;4975201;28;1160;-44
2022/03/25 07:25:37;;;;;;;;;;;23.30;47.60;;;;;;4975154;28;1009;-42
2022/03/25 07:28:05;;;;;;;;;;;23.40;47.40;;;;;;4976368;28;971;-45
2022/03/25 07:30:34;;;;;;;;;;;23.30;47.60;;;;;;4974875;28;1029;-44
2022/03/25 07:33:00;;;;;;;;;;;23.30;47.60;;;;;;4974760;28;1099;-44
2022/03/25 07:35:27;;;;;;;;;;;23.30;47.60;;;;;;4975249;28;1910;-41
2022/03/25 07:37:54;;;;;;;;;;;23.20;47.70;;;;;;4974551;28;909;-43
2022/03/25 07:40:22;;;;;;;;;;;23.20;47.80;;;;;;4974465;28;1029;-41
2022/03/25 07:42:49;;;;;;;;;;;23.20;47.80;;;;;;4975601;28;994;-44
2022/03/25 07:45:16;;;;;;;;;;;23.20;47.80;;;;;;4974771;28;978;-42
2022/03/25 07:47:44;;;;;;;;;;;23.20;47.90;;;;;;4974398;28;1024;-43
2022/03/25 07:50:12;;;;;;;;;;;23.20;47.60;;;;;;4974911;28;914;-42
2022/03/25 07:52:39;;;;;;;;;;;23.20;47.70;;;;;;4974768;28;1017;-42
2022/03/25 07:55:06;;;;;;;;;;;23.20;47.80;;;;;;4973939;28;1965;-43
2022/03/25 07:57:34;;;;;;;;;;;23.20;47.70;;;;;;4973532;28;1009;-43
2022/03/25 08:00:01;;;;;;;;;;;23.20;47.80;;;;;;4974839;28;1138;-41
2022/03/25 08:02:28;;;;;;;;;;;23.20;47.70;;;;;;4975029;28;1201;-42
2022/03/25 08:04:56;;;;;;;;;;;23.20;47.50;;;;;;4975602;28;1030;-41
2022/03/25 08:07:23;;;;;;;;;;;23.20;47.60;;;;;;4974955;28;956;-42
2022/03/25 08:09:51;;;;;;;;;;;23.10;47.70;;;;;;4973402;28;1488;-42
2022/03/25 08:12:17;;;;;;;;;;;23.10;48.70;;;;;;4973376;28;1025;-43
2022/03/25 08:14:44;;;;;;;;;;;23.10;47.60;;;;;;4974207;28;1981;-42
2022/03/25 08:17:11;;;;;;;;;;;23.20;47.60;;;;;;4974092;28;991;-46
2022/03/25 08:19:38;;;;;;;;;;;23.20;47.80;;;;;;4973430;28;947;-43
2022/03/25 08:22:06;;;;;;;;;;;23.20;47.80;;;;;;4974544;28;935;-41
2022/03/25 08:30:01;;;;;;;;;;;23.20;47.50;;;;;;4974223;28;629;-45
2022/03/25 08:32:28;;;;;;;;;;;23.20;47.50;;;;;;4974409;28;1000;-41
2022/03/25 08:34:55;;;;;;;;;;;23.20;47.40;;;;;;4974606;28;1894;-46
2022/03/25 08:37:23;;;;;;;;;;;23.20;47.50;;;;;;4974881;28;969;-45
2022/03/25 08:39:50;;;;;;;;;;;23.20;47.40;;;;;;4974760;28;978;-46
2022/03/25 08:42:16;;;;;;;;;;;23.20;47.60;;;;;;4974140;28;926;-46
2022/03/25 08:44:43;;;;;;;;;;;23.20;47.60;;;;;;4974434;28;858;-47
2022/03/25 08:47:10;;;;;;;;;;;23.20;47.60;;;;;;4974776;28;942;-46
2022/03/25 08:49:37;;;;;;;;;;;23.10;47.70;;;;;;4974360;28;831;-47
2022/03/25 08:52:04;;;;;;;;;;;23.20;47.60;;;;;;4973798;28;947;-43
2022/03/25 08:54:32;;;;;;;;;;;23.10;47.60;;;;;;4973959;28;1902;-47
2022/03/25 08:57:00;;;;;;;;;;;23.10;47.60;;;;;;4974267;28;975;-47
2022/03/25 08:59:28;;;;;;;;;;;23.10;47.70;;;;;;4974072;28;1182;-43
2022/03/25 09:01:56;;;;;;;;;;;23.10;47.70;;;;;;4974531;28;1037;-44
2022/03/25 09:04:22;;;;;;;;;;;23.20;47.70;;;;;;4974247;28;997;-44
2022/03/25 09:06:49;;;;;;;;;;;23.20;48.90;;;;;;4974129;28;930;-46
2022/03/25 09:09:16;;;;;;;;;;;23.10;47.50;;;;;;4973759;28;1068;-47
2022/03/25 09:11:44;;;;;;;;;;;23.20;47.60;;;;;;4974035;28;918;-43
2022/03/25 09:14:11;;;;;;;;;;;23.10;47.50;;;;;;4973385;28;1984;-47
2022/03/25 09:16:38;;;;;;;;;;;23.10;47.50;;;;;;4973407;28;1396;-47
2022/03/25 09:19:05;;;;;;;;;;;23.20;47.50;;;;;;4973892;28;1095;-48
2022/03/25 09:21:32;;;;;;;;;;;23.10;47.50;;;;;;4973835;28;1049;-47
2022/03/25 09:23:59;;;;;;;;;;;23.10;47.50;;;;;;4975122;28;1013;-45
2022/03/25 09:26:25;;;;;;;;;;;23.10;47.60;;;;;;4976844;28;972;-45
2022/03/25 09:28:54;;;;;;;;;;;23.10;47.50;;;;;;4977001;28;1025;-44
2022/03/25 09:31:20;;;;;;;;;;;23.10;47.40;;;;;;4977335;28;884;-45
2022/03/25 09:33:47;;;;;;;;;;;23.10;47.50;;;;;;4977317;28;926;-46
2022/03/25 09:36:14;;;;;;;;;;;23.20;47.60;;;;;;4977656;28;1906;-45
2022/03/25 09:38:41;;;;;;;;;;;23.10;47.40;;;;;;4976592;28;954;-44
2022/03/25 09:41:08;;;;;;;;;;;23.20;47.40;;;;;;4976530;28;1045;-46
2022/03/25 09:43:37;;;;;;;;;;;23.20;47.40;;;;;;4977075;28;1943;-45
2022/03/25 09:46:05;;;;;;;;;;;23.20;47.50;;;;;;4977022;28;1013;-45
2022/03/25 09:48:32;;;;;;;;;;;23.10;47.70;;;;;;4976762;28;938;-47
2022/03/25 09:50:59;;;;;;;;;;;23.20;47.60;;;;;;4977110;28;1018;-47
2022/03/25 09:53:29;;;;;;;;;;;23.20;47.60;;;;;;4977814;28;1005;-43
2022/03/25 09:55:55;;;;;;;;;;;23.20;47.40;;;;;;4975149;28;1981;-44
2022/03/25 09:58:23;;;;;;;;;;;23.20;47.60;;;;;;4975904;28;1130;-44
2022/03/25 10:00:50;;;;;;;;;;;23.20;47.40;;;;;;4976643;28;925;-45
2022/03/25 10:03:27;;;;;;;;;;;23.20;47.40;;;;;;4976414;28;891;-47
2022/03/25 10:05:58;;;;;;;;;;;23.20;47.40;;;;;;4980686;28;1461;-44
2022/03/25 10:08:32;;;;;;;;;;;23.20;47.50;;;;;;4994723;28;994;-43
2022/03/25 10:11:13;;;;;;;;;;;23.20;47.40;;;;;;4995547;28;1809;-42
2022/03/25 10:13:40;;;;;;;;;;;23.20;47.50;;;;;;4995149;28;1201;-44
2022/03/25 10:16:21;;;;;;;;;;;23.20;47.30;;;;;;4994910;28;1982;-42
2022/03/25 10:18:54;;;;;;;;;;;23.20;47.40;;;;;;4995337;28;1194;-44
2022/03/25 10:21:21;;;;;;;;;;;23.20;47.40;;;;;;4994149;28;1001;-43
2022/03/25 10:23:47;;;;;;;;;;;23.20;47.30;;;;;;4994486;28;1152;-44
2022/03/25 10:26:14;;;;;;;;;;;23.20;47.30;;;;;;4994976;28;976;-45
2022/03/25 10:28:42;;;;;;;;;;;23.20;47.40;;;;;;4996053;28;1046;-41
2022/03/25 10:31:11;;;;;;;;;;;23.20;47.20;;;;;;4994790;28;1056;-44
2022/03/25 10:33:43;;;;;;;;;;;23.20;47.20;;;;;;4993669;28;985;-44
2022/03/25 10:36:12;;;;;;;;;;;23.20;47.10;;;;;;4994232;28;1985;-44
2022/03/25 10:38:43;;;;;;;;;;;23.20;47.10;;;;;;4994929;28;989;-44
2022/03/25 10:41:10;;;;;;;;;;;23.20;47.00;;;;;;4994423;28;890;-47
2022/03/25 10:43:47;;;;;;;;;;;23.20;47.10;;;;;;4995250;28;954;-45
2022/03/25 10:46:30;;;;;;;;;;;23.30;47.20;;;;;;4995764;28;1034;-47
2022/03/25 10:48:58;;;;;;;;;;;23.30;47.10;;;;;;4995714;28;1077;-43
2022/03/25 10:51:26;;;;;;;;;;;23.30;47.10;;;;;;4996948;28;1033;-47
2022/03/25 10:53:56;;;;;;;;;;;23.30;47.10;;;;;;4997060;28;978;-43
2022/03/25 10:56:23;;;;;;;;;;;23.30;47.10;;;;;;4995395;28;1906;-42
2022/03/25 10:58:53;;;;;;;;;;;23.30;47.10;;;;;;4994297;28;1026;-43
2022/03/25 11:01:20;;;;;;;;;;;23.20;47.10;;;;;;4994721;28;997;-42
2022/03/25 11:03:49;;;;;;;;;;;23.30;47.20;;;;;;4995572;28;870;-44
2022/03/25 11:06:16;;;;;;;;;;;23.30;47.70;;;;;;4996262;28;888;-42
2022/03/25 11:08:44;;;;;;;;;;;23.30;47.30;;;;;;4995459;28;1021;-45
2022/03/25 11:11:12;;;;;;;;;;;23.30;47.10;;;;;;4995600;28;1008;-45
2022/03/25 11:13:38;;;;;;;;;;;23.30;47.20;;;;;;4995771;28;941;-42
2022/03/25 11:16:08;;;;;;;;;;;23.30;47.30;;;;;;4994304;28;1977;-44
2022/03/25 11:18:35;;;;;;;;;;;23.30;47.20;;;;;;4997349;28;938;-44
2022/03/25 11:21:05;;;;;;;;;;;23.30;47.20;;;;;;4997812;28;966;-43
2022/03/25 11:23:35;;;;;;;;;;;23.30;47.10;;;;;;4996788;28;974;-44
2022/03/25 11:26:07;;;;;;;;;;;23.40;47.30;;;;;;4994016;28;1195;-44
2022/03/25 11:28:34;;;;;;;;;;;23.30;47.20;;;;;;4995283;28;959;-42
2022/03/25 11:31:02;;;;;;;;;;;23.30;47.10;;;;;;4996005;28;1009;-42
2022/03/25 11:33:28;;;;;;;;;;;23.30;47.20;;;;;;4995357;28;894;-44
2022/03/25 11:36:14;;;;;;;;;;;23.30;47.10;;;;;;4996472;28;1906;-47
2022/03/25 11:38:41;;;;;;;;;;;23.30;47.10;;;;;;4996269;28;922;-43
2022/03/25 11:41:22;;;;;;;;;;;23.30;47.20;;;;;;4995529;28;957;-43
2022/03/25 11:44:04;;;;;;;;;;;23.30;47.10;;;;;;4995356;28;973;-47
2022/03/25 11:46:31;;;;;;;;;;;23.30;47.20;;;;;;4994188;28;1020;-46
2022/03/25 11:49:17;;;;;;;;;;;23.40;47.10;;;;;;4992884;28;982;-44
2022/03/25 11:51:45;;;;;;;;;;;23.40;47.00;;;;;;4994809;28;985;-43
2022/03/25 11:54:35;;;;;;;;;;;23.40;47.10;;;;;;4995294;28;1030;-46
2022/03/25 11:57:04;;;;;;;;;;;23.40;47.10;;;;;;4992494;28;1991;-45
2022/03/25 11:59:45;;;;;;;;;;;23.40;47.00;;;;;;4992509;28;1085;-44
2022/03/25 12:02:32;;;;;;;;;;;23.40;47.00;;;;;;4992684;28;974;-46
2022/03/25 12:04:59;;;;;;;;;;;23.40;46.90;;;;;;4994302;28;1017;-46
2022/03/25 12:07:26;;;;;;;;;;;23.40;47.00;;;;;;4994908;28;1001;-47
2022/03/25 12:09:53;;;;;;;;;;;23.40;47.10;;;;;;4993376;28;1033;-45
2022/03/25 12:12:41;;;;;;;;;;;23.40;47.10;;;;;;4995717;28;889;-46
2022/03/25 12:15:11;;;;;;;;;;;23.40;47.10;;;;;;4995608;28;1907;-43
2022/03/25 12:17:38;;;;;;;;;;;23.40;47.10;;;;;;4992759;28;979;-47
2022/03/25 12:20:06;;;;;;;;;;;23.40;47.20;;;;;;4991903;28;1046;-45
2022/03/25 12:22:37;;;;;;;;;;;23.40;47.10;;;;;;4993568;28;960;-46
2022/03/25 12:25:13;;;;;;;;;;;23.40;47.10;;;;;;4995325;28;1001;-45
2022/03/25 12:27:40;;;;;;;;;;;23.40;47.10;;;;;;4994567;28;1021;-43
2022/03/25 12:30:07;;;;;;;;;;;23.40;47.60;;;;;;4994207;28;934;-46
2022/03/25 12:32:36;;;;;;;;;;;23.40;47.10;;;;;;4995440;28;997;-45
2022/03/25 12:35:04;;;;;;;;;;;23.40;47.10;;;;;;4993934;28;1984;-45
2022/03/25 12:37:33;;;;;;;;;;;23.40;47.10;;;;;;4994857;28;1003;-46
2022/03/25 12:40:09;;;;;;;;;;;23.40;47.10;;;;;;4994607;28;1436;-45
2022/03/25 12:42:36;;;;;;;;;;;23.40;47.20;;;;;;4992482;28;947;-44
2022/03/25 12:45:03;;;;;;;;;;;23.40;47.10;;;;;;4992381;28;965;-43
2022/03/25 12:47:30;;;;;;;;;;;23.40;47.10;;;;;;4992150;28;998;-45
2022/03/25 12:49:58;;;;;;;;;;;23.40;47.00;;;;;;4991924;28;997;-47
2022/03/25 12:52:26;;;;;;;;;;;23.50;46.90;;;;;;4993099;28;1014;-46
2022/03/25 12:54:53;;;;;;;;;;;23.40;47.00;;;;;;4992001;28;966;-45
2022/03/25 12:57:30;;;;;;;;;;;23.50;46.90;;;;;;4991278;28;1967;-43
2022/03/25 12:59:58;;;;;;;;;;;23.50;47.00;;;;;;4994584;28;1118;-47
2022/03/25 13:02:30;;;;;;;;;;;23.50;46.90;;;;;;4995819;28;1030;-45
2022/03/25 13:05:06;;;;;;;;;;;23.50;47.00;;;;;;4996376;28;1033;-46
2022/03/25 13:07:32;;;;;;;;;;;23.50;47.00;;;;;;4996496;28;1012;-43
2022/03/25 13:10:00;;;;;;;;;;;23.50;46.90;;;;;;4995107;28;1013;-45
2022/03/25 13:12:30;;;;;;;;;;;23.50;46.90;;;;;;4996194;28;1878;-44
2022/03/25 13:14:57;;;;;;;;;;;23.50;46.90;;;;;;4995032;28;942;-46
2022/03/25 13:17:28;;;;;;;;;;;23.50;46.90;;;;;;4995474;28;1976;-43
2022/03/25 13:19:58;;;;;;;;;;;23.50;46.90;;;;;;4996394;28;946;-43
2022/03/25 13:22:26;;;;;;;;;;;23.50;46.90;;;;;;4995715;28;993;-45
2022/03/25 13:24:53;;;;;;;;;;;23.50;46.90;;;;;;4995046;28;1447;-46
2022/03/25 13:27:20;;;;;;;;;;;23.50;46.90;;;;;;4994919;28;998;-45
2022/03/25 13:29:47;;;;;;;;;;;23.50;46.90;;;;;;4996011;28;950;-47
2022/03/25 13:32:28;;;;;;;;;;;23.60;46.90;;;;;;4994056;28;1021;-46
2022/03/25 13:35:01;;;;;;;;;;;23.60;46.80;;;;;;4996250;28;835;-46
2022/03/25 13:37:29;;;;;;;;;;;23.70;46.60;;;;;;4995965;28;1926;-46
2022/03/25 13:39:55;;;;;;;;;;;23.70;46.50;;;;;;4997476;28;997;-44
2022/03/25 13:42:31;;;;;;;;;;;23.70;46.50;;;;;;4998120;28;1000;-44
2022/03/25 13:45:04;;;;;;;;;;;23.70;46.40;;;;;;4996901;28;925;-45
2022/03/25 13:47:31;;;;;;;;;;;23.70;46.50;;;;;;4998155;28;977;-46
2022/03/25 13:50:14;;;;;;;;;;;23.70;46.50;;;;;;4996330;28;1030;-47
2022/03/25 13:52:42;;;;;;;;;;;23.80;46.50;;;;;;4997728;28;1002;-44
2022/03/25 13:55:16;;;;;;;;;;;23.70;46.40;;;;;;4997941;28;922;-44
2022/03/25 13:57:54;;;;;;;;;;;23.80;46.40;;;;;;4995983;28;1923;-46
2022/03/25 14:00:28;;;;;;;;;;;23.80;46.40;;;;;;4996902;28;1055;-47
2022/03/25 14:02:55;;;;;;;;;;;23.80;47.50;;;;;;4996170;28;1010;-46
2022/03/25 14:05:25;;;;;;;;;;;23.80;46.30;;;;;;4997701;28;1025;-46
2022/03/25 14:07:54;;;;;;;;;;;23.80;46.40;;;;;;4996905;28;1006;-43
2022/03/25 14:10:21;;;;;;;;;;;23.90;47.50;;;;;;4995883;28;1013;-45
2022/03/25 14:12:55;;;;;;;;;;;23.80;46.10;;;;;;4996819;28;977;-45
2022/03/25 14:15:24;;;;;;;;;;;23.80;45.70;;;;;;4997069;28;882;-46
2022/03/25 14:17:52;;;;;;;;;;;23.70;40.30;;;;;;4994407;28;1906;-42
2022/03/25 14:20:19;;;;;;;;;;;23.60;36.00;;;;;;4995914;28;941;-46
2022/03/25 14:22:46;;;;;;;;;;;23.50;34.10;;;;;;4996230;28;974;-43
2022/03/25 14:25:16;;;;;;;;;;;23.40;33.10;;;;;;4995364;28;941;-43
2022/03/25 14:27:43;;;;;;;;;;;23.30;33.40;;;;;;4996756;28;1034;-43
2022/03/25 14:30:10;;;;;;;;;;;23.30;33.70;;;;;;4995241;28;1001;-45
2022/03/25 14:32:37;;;;;;;;;;;23.30;32.40;;;;;;4996143;28;1053;-46
2022/03/25 14:35:04;;;;;;;;;;;23.30;31.40;;;;;;4995802;28;1012;-45
2022/03/25 14:37:31;;;;;;;;;;;23.20;29.40;;;;;;4995951;28;1977;-43
2022/03/25 14:39:58;;;;;;;;;;;23.20;31.00;;;;;;4996487;28;1021;-43
2022/03/25 14:42:26;;;;;;;;;;;23.20;30.10;;;;;;4996396;28;966;-45
2022/03/25 14:44:53;;;;;;;;;;;23.10;30.10;;;;;;4996121;28;1009;-45
2022/03/25 14:47:19;;;;;;;;;;;23.10;30.60;;;;;;4997039;28;919;-47
2022/03/25 14:49:46;;;;;;;;;;;23.10;30.20;;;;;;4997061;28;1018;-45